sensor_id;sensor_type;location;lat;lon;timestamp;temperature;humidity
10296;DHT22;5193;51.032;6.356;2023-03-01T00:01:07;0.00;99.90
10296;DHT22;5193;51.032;6.356;2023-03-01T00:03:33;-0.10;99.90
10296;DHT22;5193;51.032;6.356;2023-03-01T00:05:59;-0.10;99.90
10296;DHT22;5193;51.032;6.356;2023-03-01T00:08:25;-0.10;99.90
10296;DHT22;5193;51.032;6.356;2023-03-01T00:11:07;-0.10;99.90
10296;DHT22;5193;51.032;6.356;2023-03-01T00:13:34;-0.10;99.90
10296;DHT22;5193;51.032;6.356;2023-03-01T00:16:03;-0.10;99.90
10296;DHT22;5193;51.032;6.356;2023-03-01T00:18:29;-0.10;99.90
10296;DHT22;5193;51.032;6.356;2023-03-01T00:20:55;-0.10;99.90
10296;DHT22;5193;51.032;6.356;2023-03-01T00:23:22;-0.20;99.90
10296;DHT22;5193;51.032;6.356;2023-03-01T00:25:47;-0.20;99.90
10296;DHT22;5193;51.032;6.356;2023-03-01T00:28:13;-0.30;99.90
10296;DHT22;5193;51.032;6.356;2023-03-01T00:30:39;-0.30;99.90
10296;DHT22;5193;51.032;6.356;2023-03-01T00:33:04;-0.40;99.90
10296;DHT22;5193;51.032;6.356;2023-03-01T00:35:32;-0.50;99.90
10296;DHT22;5193;51.032;6.356;2023-03-01T00:37:58;-0.50;99.90
10296;DHT22;5193;51.032;6.356;2023-03-01T00:40:25;-0.50;99.90
10296;DHT22;5193;51.032;6.356;2023-03-01T00:42:51;-0.60;99.90
10296;DHT22;5193;51.032;6.356;2023-03-01T00:45:17;-0.60;99.90
10296;DHT22;5193;51.032;6.356;2023-03-01T00:47:42;-0.70;99.90
10296;DHT22;5193;51.032;6.356;2023-03-01T00:50:09;-0.70;99.90
10296;DHT22;5193;51.032;6.356;2023-03-01T00:52:35;-0.70;99.90
10296;DHT22;5193;51.032;6.356;2023-03-01T00:55:01;-0.70;99.90
10296;DHT22;5193;51.032;6.356;2023-03-01T00:57:27;-0.70;99.90
10296;DHT22;5193;51.032;6.356;2023-03-01T00:59:52;-0.80;99.90
10296;DHT22;5193;51.032;6.356;2023-03-01T01:02:21;-0.80;99.90
10296;DHT22;5193;51.032;6.356;2023-03-01T01:04:47;-0.80;99.90
10296;DHT22;5193;51.032;6.356;2023-03-01T01:07:13;-0.80;99.90
10296;DHT22;5193;51.032;6.356;2023-03-01T01:09:39;-0.90;99.90
10296;DHT22;5193;51.032;6.356;2023-03-01T01:12:05;-0.90;99.90
10296;DHT22;5193;51.032;6.356;2023-03-01T01:14:31;-0.90;99.90
10296;DHT22;5193;51.032;6.356;2023-03-01T01:16:56;-1.00;99.90
10296;DHT22;5193;51.032;6.356;2023-03-01T01:19:22;-1.00;99.90
10296;DHT22;5193;51.032;6.356;2023-03-01T01:21:48;-1.00;99.90
10296;DHT22;5193;51.032;6.356;2023-03-01T01:24:15;-1.00;99.90
10296;DHT22;5193;51.032;6.356;2023-03-01T01:26:41;-1.10;99.90
10296;DHT22;5193;51.032;6.356;2023-03-01T01:29:07;-1.10;99.90
10296;DHT22;5193;51.032;6.356;2023-03-01T01:31:35;-1.10;99.90
10296;DHT22;5193;51.032;6.356;2023-03-01T01:34:02;-1.20;99.90
10296;DHT22;5193;51.032;6.356;2023-03-01T01:36:29;-1.20;99.90
10296;DHT22;5193;51.032;6.356;2023-03-01T01:38:55;-1.20;99.90
10296;DHT22;5193;51.032;6.356;2023-03-01T01:41:22;-1.30;99.90
10296;DHT22;5193;51.032;6.356;2023-03-01T01:44:10;-1.30;99.90
10296;DHT22;5193;51.032;6.356;2023-03-01T01:46:50;-1.30;99.90
10296;DHT22;5193;51.032;6.356;2023-03-01T01:54:41;-1.40;99.90
10296;DHT22;5193;51.032;6.356;2023-03-01T01:57:17;-1.40;99.90
10296;DHT22;5193;51.032;6.356;2023-03-01T01:59:47;-1.40;99.90
10296;DHT22;5193;51.032;6.356;2023-03-01T02:02:14;-1.50;99.90
10296;DHT22;5193;51.032;6.356;2023-03-01T02:04:40;-1.50;99.90
10296;DHT22;5193;51.032;6.356;2023-03-01T02:07:17;-1.50;99.90
10296;DHT22;5193;51.032;6.356;2023-03-01T02:09:47;-1.60;99.90
10296;DHT22;5193;51.032;6.356;2023-03-01T02:12:15;-1.60;99.90
10296;DHT22;5193;51.032;6.356;2023-03-01T02:14:42;-1.60;99.90
10296;DHT22;5193;51.032;6.356;2023-03-01T02:17:09;-1.60;99.90
10296;DHT22;5193;51.032;6.356;2023-03-01T02:22:28;-1.70;99.90
10296;DHT22;5193;51.032;6.356;2023-03-01T02:25:05;-1.70;99.90
10296;DHT22;5193;51.032;6.356;2023-03-01T02:30:41;-1.60;99.90
10296;DHT22;5193;51.032;6.356;2023-03-01T02:33:28;-1.70;99.90
10296;DHT22;5193;51.032;6.356;2023-03-01T02:35:58;-1.70;99.90
10296;DHT22;5193;51.032;6.356;2023-03-01T02:38:25;-1.70;99.90
10296;DHT22;5193;51.032;6.356;2023-03-01T02:40:52;-1.70;99.90
10296;DHT22;5193;51.032;6.356;2023-03-01T02:43:21;-1.80;99.90
10296;DHT22;5193;51.032;6.356;2023-03-01T02:45:50;-1.80;99.90
10296;DHT22;5193;51.032;6.356;2023-03-01T02:48:16;-1.80;99.90
10296;DHT22;5193;51.032;6.356;2023-03-01T02:50:52;-1.80;99.90
10296;DHT22;5193;51.032;6.356;2023-03-01T02:53:45;-1.90;99.90
10296;DHT22;5193;51.032;6.356;2023-03-01T02:56:15;-1.90;99.90
10296;DHT22;5193;51.032;6.356;2023-03-01T02:58:41;-1.90;99.90
10296;DHT22;5193;51.032;6.356;2023-03-01T03:01:10;-1.90;99.90
10296;DHT22;5193;51.032;6.356;2023-03-01T03:03:35;-1.90;99.90
10296;DHT22;5193;51.032;6.356;2023-03-01T03:06:01;-1.90;99.90
10296;DHT22;5193;51.032;6.356;2023-03-01T03:08:26;-1.90;99.90
10296;DHT22;5193;51.032;6.356;2023-03-01T03:10:52;-2.00;99.90
10296;DHT22;5193;51.032;6.356;2023-03-01T03:13:18;-2.00;99.90
10296;DHT22;5193;51.032;6.356;2023-03-01T03:15:44;-2.00;99.90
10296;DHT22;5193;51.032;6.356;2023-03-01T03:18:14;-2.00;99.90
10296;DHT22;5193;51.032;6.356;2023-03-01T03:20:41;-2.00;99.90
10296;DHT22;5193;51.032;6.356;2023-03-01T03:23:07;-2.10;99.90
10296;DHT22;5193;51.032;6.356;2023-03-01T03:25:32;-2.10;99.90
10296;DHT22;5193;51.032;6.356;2023-03-01T03:28:03;-2.10;99.90
10296;DHT22;5193;51.032;6.356;2023-03-01T03:30:36;-2.10;99.90
10296;DHT22;5193;51.032;6.356;2023-03-01T03:33:04;-2.20;99.90
10296;DHT22;5193;51.032;6.356;2023-03-01T03:35:33;-2.20;99.90
10296;DHT22;5193;51.032;6.356;2023-03-01T03:38:04;-2.20;99.90
10296;DHT22;5193;51.032;6.356;2023-03-01T03:40:39;-2.20;99.90
10296;DHT22;5193;51.032;6.356;2023-03-01T03:43:23;-2.20;99.90
10296;DHT22;5193;51.032;6.356;2023-03-01T03:45:50;-2.20;99.90
10296;DHT22;5193;51.032;6.356;2023-03-01T03:48:16;-2.20;99.90
10296;DHT22;5193;51.032;6.356;2023-03-01T03:50:48;-2.30;99.90
10296;DHT22;5193;51.032;6.356;2023-03-01T03:53:14;-2.30;99.90
10296;DHT22;5193;51.032;6.356;2023-03-01T03:55:40;-2.30;99.90
10296;DHT22;5193;51.032;6.356;2023-03-01T03:58:09;-2.30;99.90
10296;DHT22;5193;51.032;6.356;2023-03-01T04:00:40;-2.30;99.90
10296;DHT22;5193;51.032;6.356;2023-03-01T04:03:07;-2.40;99.90
10296;DHT22;5193;51.032;6.356;2023-03-01T04:05:33;-2.40;99.90
10296;DHT22;5193;51.032;6.356;2023-03-01T04:07:59;-2.40;99.90
10296;DHT22;5193;51.032;6.356;2023-03-01T04:10:30;-2.30;99.90
10296;DHT22;5193;51.032;6.356;2023-03-01T04:12:56;-2.30;99.90
10296;DHT22;5193;51.032;6.356;2023-03-01T04:15:23;-2.40;99.90
10296;DHT22;5193;51.032;6.356;2023-03-01T04:17:50;-2.40;99.90
10296;DHT22;5193;51.032;6.356;2023-03-01T04:20:23;-2.40;99.90
10296;DHT22;5193;51.032;6.356;2023-03-01T04:22:56;-2.40;99.90
10296;DHT22;5193;51.032;6.356;2023-03-01T04:25:25;-2.50;99.90
10296;DHT22;5193;51.032;6.356;2023-03-01T04:27:51;-2.50;99.90
10296;DHT22;5193;51.032;6.356;2023-03-01T04:30:17;-2.50;99.90
10296;DHT22;5193;51.032;6.356;2023-03-01T04:32:43;-2.50;99.90
10296;DHT22;5193;51.032;6.356;2023-03-01T04:35:09;-2.50;99.90
10296;DHT22;5193;51.032;6.356;2023-03-01T04:37:34;-2.50;99.90
10296;DHT22;5193;51.032;6.356;2023-03-01T04:40:01;-2.50;99.90
10296;DHT22;5193;51.032;6.356;2023-03-01T04:42:37;-2.60;99.90
10296;DHT22;5193;51.032;6.356;2023-03-01T04:45:03;-2.60;99.90
10296;DHT22;5193;51.032;6.356;2023-03-01T04:47:41;-2.60;99.90
10296;DHT22;5193;51.032;6.356;2023-03-01T04:50:08;-2.60;99.90
10296;DHT22;5193;51.032;6.356;2023-03-01T04:52:34;-2.70;99.90
10296;DHT22;5193;51.032;6.356;2023-03-01T04:55:00;-2.70;99.90
10296;DHT22;5193;51.032;6.356;2023-03-01T04:57:26;-2.70;99.90
10296;DHT22;5193;51.032;6.356;2023-03-01T04:59:51;-2.70;99.90
10296;DHT22;5193;51.032;6.356;2023-03-01T05:02:17;-2.80;99.90
10296;DHT22;5193;51.032;6.356;2023-03-01T05:04:43;-2.80;99.90
10296;DHT22;5193;51.032;6.356;2023-03-01T05:07:08;-2.80;99.90
10296;DHT22;5193;51.032;6.356;2023-03-01T05:09:34;-2.90;99.90
10296;DHT22;5193;51.032;6.356;2023-03-01T05:12:00;-3.00;99.90
10296;DHT22;5193;51.032;6.356;2023-03-01T05:14:25;-3.00;99.90
10296;DHT22;5193;51.032;6.356;2023-03-01T05:16:51;-3.10;99.90
10296;DHT22;5193;51.032;6.356;2023-03-01T05:19:16;-3.10;99.90
10296;DHT22;5193;51.032;6.356;2023-03-01T05:21:48;-3.10;99.90
10296;DHT22;5193;51.032;6.356;2023-03-01T05:24:31;-3.20;99.90
10296;DHT22;5193;51.032;6.356;2023-03-01T05:26:56;-3.20;99.90
10296;DHT22;5193;51.032;6.356;2023-03-01T05:29:23;-3.20;99.90
10296;DHT22;5193;51.032;6.356;2023-03-01T05:31:56;-3.30;99.90
10296;DHT22;5193;51.032;6.356;2023-03-01T05:34:27;-3.30;99.90
10296;DHT22;5193;51.032;6.356;2023-03-01T05:36:53;-3.30;99.90
10296;DHT22;5193;51.032;6.356;2023-03-01T05:39:20;-3.30;99.90
10296;DHT22;5193;51.032;6.356;2023-03-01T05:41:52;-3.30;99.90
10296;DHT22;5193;51.032;6.356;2023-03-01T05:44:18;-3.30;99.90
10296;DHT22;5193;51.032;6.356;2023-03-01T05:46:44;-3.30;99.90
10296;DHT22;5193;51.032;6.356;2023-03-01T05:49:10;-3.40;99.90
10296;DHT22;5193;51.032;6.356;2023-03-01T05:51:36;-3.40;99.90
10296;DHT22;5193;51.032;6.356;2023-03-01T05:54:02;-3.40;99.90
10296;DHT22;5193;51.032;6.356;2023-03-01T05:56:27;-3.40;99.90
10296;DHT22;5193;51.032;6.356;2023-03-01T05:58:53;-3.40;99.90
10296;DHT22;5193;51.032;6.356;2023-03-01T06:01:18;-3.40;99.90
10296;DHT22;5193;51.032;6.356;2023-03-01T06:03:44;-3.40;99.90
10296;DHT22;5193;51.032;6.356;2023-03-01T06:06:09;-3.40;99.90
10296;DHT22;5193;51.032;6.356;2023-03-01T06:08:35;-3.40;99.90
10296;DHT22;5193;51.032;6.356;2023-03-01T06:11:00;-3.40;99.90
10296;DHT22;5193;51.032;6.356;2023-03-01T06:13:26;-3.40;99.90
10296;DHT22;5193;51.032;6.356;2023-03-01T06:15:52;-3.30;99.90
10296;DHT22;5193;51.032;6.356;2023-03-01T06:18:17;-3.30;99.90
10296;DHT22;5193;51.032;6.356;2023-03-01T06:20:43;-3.30;99.90
10296;DHT22;5193;51.032;6.356;2023-03-01T06:23:08;-3.30;99.90
10296;DHT22;5193;51.032;6.356;2023-03-01T06:25:34;-3.30;99.90
10296;DHT22;5193;51.032;6.356;2023-03-01T06:28:00;-3.30;99.90
10296;DHT22;5193;51.032;6.356;2023-03-01T06:30:25;-3.30;99.90
10296;DHT22;5193;51.032;6.356;2023-03-01T06:32:51;-3.20;99.90
10296;DHT22;5193;51.032;6.356;2023-03-01T06:35:18;-3.20;99.90
10296;DHT22;5193;51.032;6.356;2023-03-01T06:37:45;-3.10;99.90
10296;DHT22;5193;51.032;6.356;2023-03-01T06:40:11;-3.10;99.90
10296;DHT22;5193;51.032;6.356;2023-03-01T06:42:40;-3.10;99.90
10296;DHT22;5193;51.032;6.356;2023-03-01T06:45:07;-3.10;99.90
10296;DHT22;5193;51.032;6.356;2023-03-01T06:47:33;-3.00;99.90
10296;DHT22;5193;51.032;6.356;2023-03-01T06:50:00;-3.00;99.90
10296;DHT22;5193;51.032;6.356;2023-03-01T06:52:26;-2.90;99.90
10296;DHT22;5193;51.032;6.356;2023-03-01T06:54:51;-2.90;99.90
10296;DHT22;5193;51.032;6.356;2023-03-01T06:57:17;-2.80;99.90
10296;DHT22;5193;51.032;6.356;2023-03-01T06:59:42;-2.80;99.90
10296;DHT22;5193;51.032;6.356;2023-03-01T07:02:11;-2.80;99.90
10296;DHT22;5193;51.032;6.356;2023-03-01T07:04:38;-2.70;99.90
10296;DHT22;5193;51.032;6.356;2023-03-01T07:07:04;-2.70;99.90
10296;DHT22;5193;51.032;6.356;2023-03-01T07:09:30;-2.60;99.90
10296;DHT22;5193;51.032;6.356;2023-03-01T07:11:56;-2.60;99.90
10296;DHT22;5193;51.032;6.356;2023-03-01T07:14:22;-2.50;99.90
10296;DHT22;5193;51.032;6.356;2023-03-01T07:16:49;-2.50;99.90
10296;DHT22;5193;51.032;6.356;2023-03-01T07:19:15;-2.40;99.90
10296;DHT22;5193;51.032;6.356;2023-03-01T07:21:41;-2.40;99.90
10296;DHT22;5193;51.032;6.356;2023-03-01T07:24:07;-2.30;99.90
10296;DHT22;5193;51.032;6.356;2023-03-01T07:26:33;-2.30;99.90
10296;DHT22;5193;51.032;6.356;2023-03-01T07:29:00;-2.20;99.90
10296;DHT22;5193;51.032;6.356;2023-03-01T07:31:25;-2.20;99.90
10296;DHT22;5193;51.032;6.356;2023-03-01T07:33:54;-2.10;99.90
10296;DHT22;5193;51.032;6.356;2023-03-01T07:36:19;-2.10;99.90
10296;DHT22;5193;51.032;6.356;2023-03-01T07:38:45;-2.10;99.90
10296;DHT22;5193;51.032;6.356;2023-03-01T07:41:10;-2.00;99.90
10296;DHT22;5193;51.032;6.356;2023-03-01T07:43:36;-2.00;99.90
10296;DHT22;5193;51.032;6.356;2023-03-01T07:46:02;-1.90;99.90
10296;DHT22;5193;51.032;6.356;2023-03-01T07:48:29;-1.80;99.90
10296;DHT22;5193;51.032;6.356;2023-03-01T07:50:58;-1.80;99.90
10296;DHT22;5193;51.032;6.356;2023-03-01T07:53:24;-1.70;99.90
10296;DHT22;5193;51.032;6.356;2023-03-01T07:56:03;-1.60;99.90
10296;DHT22;5193;51.032;6.356;2023-03-01T07:58:29;-1.50;99.90
10296;DHT22;5193;51.032;6.356;2023-03-01T08:00:54;-1.40;99.90
10296;DHT22;5193;51.032;6.356;2023-03-01T08:03:20;-1.40;99.90
10296;DHT22;5193;51.032;6.356;2023-03-01T08:05:46;-1.30;99.90
10296;DHT22;5193;51.032;6.356;2023-03-01T08:08:11;-1.20;99.90
10296;DHT22;5193;51.032;6.356;2023-03-01T08:10:37;-1.10;99.90
10296;DHT22;5193;51.032;6.356;2023-03-01T08:13:02;-1.10;99.90
10296;DHT22;5193;51.032;6.356;2023-03-01T08:15:28;-1.00;99.90
10296;DHT22;5193;51.032;6.356;2023-03-01T08:17:53;-0.90;99.90
10296;DHT22;5193;51.032;6.356;2023-03-01T08:20:19;-0.70;99.90
10296;DHT22;5193;51.032;6.356;2023-03-01T08:22:44;-0.70;99.90
10296;DHT22;5193;51.032;6.356;2023-03-01T08:25:10;-0.60;99.90
10296;DHT22;5193;51.032;6.356;2023-03-01T08:27:35;-0.50;99.90
10296;DHT22;5193;51.032;6.356;2023-03-01T08:30:01;-0.50;99.90
10296;DHT22;5193;51.032;6.356;2023-03-01T08:32:27;-0.40;99.90
10296;DHT22;5193;51.032;6.356;2023-03-01T08:34:52;-0.30;99.90
10296;DHT22;5193;51.032;6.356;2023-03-01T08:37:18;-0.20;99.90
10296;DHT22;5193;51.032;6.356;2023-03-01T08:39:43;-0.20;99.90
10296;DHT22;5193;51.032;6.356;2023-03-01T08:42:09;-0.10;99.90
10296;DHT22;5193;51.032;6.356;2023-03-01T08:44:34;0.00;99.90
10296;DHT22;5193;51.032;6.356;2023-03-01T08:47:00;0.00;99.90
10296;DHT22;5193;51.032;6.356;2023-03-01T08:49:27;0.10;99.90
10296;DHT22;5193;51.032;6.356;2023-03-01T08:51:53;0.20;99.90
10296;DHT22;5193;51.032;6.356;2023-03-01T08:54:20;0.30;99.90
10296;DHT22;5193;51.032;6.356;2023-03-01T08:56:47;0.40;99.90
10296;DHT22;5193;51.032;6.356;2023-03-01T08:59:15;0.40;99.90
10296;DHT22;5193;51.032;6.356;2023-03-01T09:01:41;0.50;99.90
10296;DHT22;5193;51.032;6.356;2023-03-01T09:04:09;0.50;99.90
10296;DHT22;5193;51.032;6.356;2023-03-01T09:06:35;0.60;99.90
10296;DHT22;5193;51.032;6.356;2023-03-01T09:09:02;0.70;99.90
10296;DHT22;5193;51.032;6.356;2023-03-01T09:11:28;0.80;99.90
10296;DHT22;5193;51.032;6.356;2023-03-01T09:13:53;0.80;99.90
10296;DHT22;5193;51.032;6.356;2023-03-01T09:16:20;0.90;99.90
10296;DHT22;5193;51.032;6.356;2023-03-01T09:18:53;1.00;99.90
10296;DHT22;5193;51.032;6.356;2023-03-01T09:21:21;1.00;99.90
10296;DHT22;5193;51.032;6.356;2023-03-01T09:23:49;1.10;99.90
10296;DHT22;5193;51.032;6.356;2023-03-01T09:26:20;1.20;99.90
10296;DHT22;5193;51.032;6.356;2023-03-01T09:28:47;1.30;99.90
10296;DHT22;5193;51.032;6.356;2023-03-01T09:31:14;1.30;99.90
10296;DHT22;5193;51.032;6.356;2023-03-01T09:33:41;1.40;99.90
10296;DHT22;5193;51.032;6.356;2023-03-01T09:36:13;1.40;99.90
10296;DHT22;5193;51.032;6.356;2023-03-01T09:38:39;1.50;99.90
10296;DHT22;5193;51.032;6.356;2023-03-01T09:41:42;1.60;99.90
10296;DHT22;5193;51.032;6.356;2023-03-01T09:46:52;1.70;99.90
10296;DHT22;5193;51.032;6.356;2023-03-01T09:49:21;1.80;99.90
10296;DHT22;5193;51.032;6.356;2023-03-01T09:54:26;2.10;99.90
10296;DHT22;5193;51.032;6.356;2023-03-01T09:57:18;2.30;99.90
10296;DHT22;5193;51.032;6.356;2023-03-01T10:02:23;2.50;99.90
10296;DHT22;5193;51.032;6.356;2023-03-01T10:04:55;2.60;99.90
10296;DHT22;5193;51.032;6.356;2023-03-01T10:07:41;2.80;99.90
10296;DHT22;5193;51.032;6.356;2023-03-01T10:10:10;2.70;99.90
10296;DHT22;5193;51.032;6.356;2023-03-01T10:12:41;2.80;99.90
10296;DHT22;5193;51.032;6.356;2023-03-01T10:15:35;3.00;99.90
10296;DHT22;5193;51.032;6.356;2023-03-01T10:18:18;3.10;99.90
10296;DHT22;5193;51.032;6.356;2023-03-01T10:23:25;3.20;99.90
10296;DHT22;5193;51.032;6.356;2023-03-01T10:26:00;3.20;99.90
10296;DHT22;5193;51.032;6.356;2023-03-01T10:31:24;3.50;99.90
10296;DHT22;5193;51.032;6.356;2023-03-01T10:33:55;3.50;99.90
10296;DHT22;5193;51.032;6.356;2023-03-01T10:36:23;3.60;99.90
10296;DHT22;5193;51.032;6.356;2023-03-01T10:38:52;3.70;99.90
10296;DHT22;5193;51.032;6.356;2023-03-01T10:41:20;3.80;99.90
10296;DHT22;5193;51.032;6.356;2023-03-01T10:43:51;3.80;99.90
10296;DHT22;5193;51.032;6.356;2023-03-01T10:49:16;3.90;99.90
10296;DHT22;5193;51.032;6.356;2023-03-01T10:51:44;3.90;99.90
10296;DHT22;5193;51.032;6.356;2023-03-01T10:54:27;4.00;99.90
10296;DHT22;5193;51.032;6.356;2023-03-01T10:57:04;4.20;99.90
10296;DHT22;5193;51.032;6.356;2023-03-01T10:59:36;4.20;99.90
10296;DHT22;5193;51.032;6.356;2023-03-01T11:12:24;4.80;99.90
10296;DHT22;5193;51.032;6.356;2023-03-01T11:14:55;4.90;99.90
10296;DHT22;5193;51.032;6.356;2023-03-01T11:17:27;4.90;99.90
10296;DHT22;5193;51.032;6.356;2023-03-01T11:22:52;5.30;99.90
10296;DHT22;5193;51.032;6.356;2023-03-01T11:25:23;5.30;99.90
10296;DHT22;5193;51.032;6.356;2023-03-01T11:27:49;5.40;99.90
10296;DHT22;5193;51.032;6.356;2023-03-01T11:30:31;5.30;99.90
10296;DHT22;5193;51.032;6.356;2023-03-01T11:35:36;5.30;99.90
10296;DHT22;5193;51.032;6.356;2023-03-01T11:38:22;5.30;99.90
10296;DHT22;5193;51.032;6.356;2023-03-01T11:40:52;5.40;99.90
10296;DHT22;5193;51.032;6.356;2023-03-01T11:49:29;5.50;99.90
10296;DHT22;5193;51.032;6.356;2023-03-01T11:55:12;5.90;99.90
10296;DHT22;5193;51.032;6.356;2023-03-01T11:58:13;5.90;99.90
10296;DHT22;5193;51.032;6.356;2023-03-01T12:26:17;6.40;99.90
10296;DHT22;5193;51.032;6.356;2023-03-01T12:32:07;6.60;99.90
10296;DHT22;5193;51.032;6.356;2023-03-01T12:34:41;6.60;99.90
10296;DHT22;5193;51.032;6.356;2023-03-01T12:37:34;6.60;99.90
10296;DHT22;5193;51.032;6.356;2023-03-01T12:43:22;6.60;99.90
10296;DHT22;5193;51.032;6.356;2023-03-01T12:48:45;6.80;99.90
10296;DHT22;5193;51.032;6.356;2023-03-01T12:51:14;7.00;99.90
10296;DHT22;5193;51.032;6.356;2023-03-01T12:53:45;7.10;99.90
10296;DHT22;5193;51.032;6.356;2023-03-01T12:56:15;7.10;99.90
10296;DHT22;5193;51.032;6.356;2023-03-01T13:01:36;6.90;99.90
10296;DHT22;5193;51.032;6.356;2023-03-01T13:04:12;6.90;99.90
10296;DHT22;5193;51.032;6.356;2023-03-01T13:12:49;7.10;99.90
10296;DHT22;5193;51.032;6.356;2023-03-01T13:15:26;7.00;99.90
10296;DHT22;5193;51.032;6.356;2023-03-01T13:17:55;7.10;99.90
10296;DHT22;5193;51.032;6.356;2023-03-01T13:23:23;7.20;99.90
10296;DHT22;5193;51.032;6.356;2023-03-01T13:26:11;7.20;99.90
10296;DHT22;5193;51.032;6.356;2023-03-01T13:33:47;7.10;99.90
10296;DHT22;5193;51.032;6.356;2023-03-01T13:44:40;7.20;99.90
10296;DHT22;5193;51.032;6.356;2023-03-01T13:49:57;7.40;99.90
10296;DHT22;5193;51.032;6.356;2023-03-01T13:52:39;7.50;99.90
10296;DHT22;5193;51.032;6.356;2023-03-01T13:57:42;7.60;99.90
10296;DHT22;5193;51.032;6.356;2023-03-01T14:05:30;7.60;99.90
10296;DHT22;5193;51.032;6.356;2023-03-01T14:07:56;7.70;99.90
10296;DHT22;5193;51.032;6.356;2023-03-01T14:10:22;7.60;99.90
10296;DHT22;5193;51.032;6.356;2023-03-01T14:13:12;7.60;99.90
10296;DHT22;5193;51.032;6.356;2023-03-01T14:19:00;7.60;99.90
10296;DHT22;5193;51.032;6.356;2023-03-01T14:21:27;7.60;99.90
10296;DHT22;5193;51.032;6.356;2023-03-01T14:23:54;7.60;99.90
10296;DHT22;5193;51.032;6.356;2023-03-01T14:26:21;7.60;99.90
10296;DHT22;5193;51.032;6.356;2023-03-01T14:28:48;7.60;99.90
10296;DHT22;5193;51.032;6.356;2023-03-01T14:31:37;7.50;99.90
10296;DHT22;5193;51.032;6.356;2023-03-01T14:34:03;7.50;99.90
10296;DHT22;5193;51.032;6.356;2023-03-01T14:36:34;7.50;99.90
10296;DHT22;5193;51.032;6.356;2023-03-01T14:38:59;7.60;99.90
10296;DHT22;5193;51.032;6.356;2023-03-01T14:41:32;7.60;99.90
10296;DHT22;5193;51.032;6.356;2023-03-01T14:44:02;7.70;99.90
10296;DHT22;5193;51.032;6.356;2023-03-01T14:46:37;7.70;99.90
10296;DHT22;5193;51.032;6.356;2023-03-01T14:49:19;7.70;99.90
10296;DHT22;5193;51.032;6.356;2023-03-01T14:52:06;7.60;99.90
10296;DHT22;5193;51.032;6.356;2023-03-01T14:54:52;7.60;99.90
10296;DHT22;5193;51.032;6.356;2023-03-01T14:57:25;7.70;99.90
10296;DHT22;5193;51.032;6.356;2023-03-01T14:59:57;7.70;99.90
10296;DHT22;5193;51.032;6.356;2023-03-01T15:02:24;7.70;99.90
10296;DHT22;5193;51.032;6.356;2023-03-01T15:05:02;7.70;99.90
10296;DHT22;5193;51.032;6.356;2023-03-01T15:07:37;7.70;99.90
10296;DHT22;5193;51.032;6.356;2023-03-01T15:10:05;7.80;99.90
10296;DHT22;5193;51.032;6.356;2023-03-01T15:12:35;7.70;99.90
10296;DHT22;5193;51.032;6.356;2023-03-01T15:16:03;7.70;99.90
10296;DHT22;5193;51.032;6.356;2023-03-01T15:18:20;7.70;99.90
10296;DHT22;5193;51.032;6.356;2023-03-01T15:20:50;7.70;99.90
10296;DHT22;5193;51.032;6.356;2023-03-01T15:23:36;7.70;99.90
10296;DHT22;5193;51.032;6.356;2023-03-01T15:26:02;7.70;99.90
10296;DHT22;5193;51.032;6.356;2023-03-01T15:28:37;7.70;99.90
10296;DHT22;5193;51.032;6.356;2023-03-01T15:31:21;7.70;99.90
10296;DHT22;5193;51.032;6.356;2023-03-01T15:33:47;7.70;99.90
10296;DHT22;5193;51.032;6.356;2023-03-01T15:36:44;7.60;99.90
10296;DHT22;5193;51.032;6.356;2023-03-01T15:39:43;7.50;99.90
10296;DHT22;5193;51.032;6.356;2023-03-01T15:45:28;7.40;99.90
10296;DHT22;5193;51.032;6.356;2023-03-01T15:48:19;7.40;99.90
10296;DHT22;5193;51.032;6.356;2023-03-01T15:50:57;7.30;99.90
10296;DHT22;5193;51.032;6.356;2023-03-01T15:53:23;7.40;99.90
10296;DHT22;5193;51.032;6.356;2023-03-01T15:55:49;7.30;99.90
10296;DHT22;5193;51.032;6.356;2023-03-01T15:58:21;7.30;99.90
10296;DHT22;5193;51.032;6.356;2023-03-01T16:00:48;7.20;99.90
10296;DHT22;5193;51.032;6.356;2023-03-01T16:03:15;7.20;99.90
10296;DHT22;5193;51.032;6.356;2023-03-01T16:05:50;7.20;99.90
10296;DHT22;5193;51.032;6.356;2023-03-01T16:08:17;7.20;99.90
10296;DHT22;5193;51.032;6.356;2023-03-01T16:10:42;7.10;99.90
10296;DHT22;5193;51.032;6.356;2023-03-01T16:13:12;7.10;99.90
10296;DHT22;5193;51.032;6.356;2023-03-01T16:15:38;7.00;99.90
10296;DHT22;5193;51.032;6.356;2023-03-01T16:18:05;7.00;99.90
10296;DHT22;5193;51.032;6.356;2023-03-01T16:20:32;6.90;99.90
10296;DHT22;5193;51.032;6.356;2023-03-01T16:23:02;6.90;99.90
10296;DHT22;5193;51.032;6.356;2023-03-01T16:25:29;6.80;99.90
10296;DHT22;5193;51.032;6.356;2023-03-01T16:27:55;6.70;99.90
10296;DHT22;5193;51.032;6.356;2023-03-01T16:30:23;6.70;99.90
10296;DHT22;5193;51.032;6.356;2023-03-01T16:32:49;6.60;99.90
10296;DHT22;5193;51.032;6.356;2023-03-01T16:35:18;6.50;99.90
10296;DHT22;5193;51.032;6.356;2023-03-01T16:37:45;6.50;99.90
10296;DHT22;5193;51.032;6.356;2023-03-01T16:40:31;6.40;99.90
10296;DHT22;5193;51.032;6.356;2023-03-01T16:42:57;6.40;99.90
10296;DHT22;5193;51.032;6.356;2023-03-01T16:45:27;6.30;99.90
10296;DHT22;5193;51.032;6.356;2023-03-01T16:47:53;6.20;99.90
10296;DHT22;5193;51.032;6.356;2023-03-01T16:50:19;6.20;99.90
10296;DHT22;5193;51.032;6.356;2023-03-01T16:52:45;6.10;99.90
10296;DHT22;5193;51.032;6.356;2023-03-01T16:55:10;6.10;99.90
10296;DHT22;5193;51.032;6.356;2023-03-01T16:57:37;6.00;99.90
10296;DHT22;5193;51.032;6.356;2023-03-01T17:00:05;5.90;99.90
10296;DHT22;5193;51.032;6.356;2023-03-01T17:05:01;5.70;99.90
10296;DHT22;5193;51.032;6.356;2023-03-01T17:07:28;5.70;99.90
10296;DHT22;5193;51.032;6.356;2023-03-01T17:09:53;5.60;99.90
10296;DHT22;5193;51.032;6.356;2023-03-01T17:12:19;5.50;99.90
10296;DHT22;5193;51.032;6.356;2023-03-01T17:14:44;5.50;99.90
10296;DHT22;5193;51.032;6.356;2023-03-01T17:17:10;5.40;99.90
10296;DHT22;5193;51.032;6.356;2023-03-01T17:19:37;5.30;99.90
10296;DHT22;5193;51.032;6.356;2023-03-01T17:22:09;5.20;99.90
10296;DHT22;5193;51.032;6.356;2023-03-01T17:24:36;5.10;99.90
10296;DHT22;5193;51.032;6.356;2023-03-01T17:27:02;5.10;99.90
10296;DHT22;5193;51.032;6.356;2023-03-01T17:29:28;5.00;99.90
10296;DHT22;5193;51.032;6.356;2023-03-01T17:31:54;4.90;99.90
10296;DHT22;5193;51.032;6.356;2023-03-01T17:34:24;4.90;99.90
10296;DHT22;5193;51.032;6.356;2023-03-01T17:36:50;4.80;99.90
10296;DHT22;5193;51.032;6.356;2023-03-01T17:39:20;4.80;99.90
10296;DHT22;5193;51.032;6.356;2023-03-01T17:41:53;4.70;99.90
10296;DHT22;5193;51.032;6.356;2023-03-01T17:44:19;4.60;99.90
10296;DHT22;5193;51.032;6.356;2023-03-01T17:46:44;4.60;99.90
10296;DHT22;5193;51.032;6.356;2023-03-01T17:49:10;4.50;99.90
10296;DHT22;5193;51.032;6.356;2023-03-01T17:51:36;4.50;99.90
10296;DHT22;5193;51.032;6.356;2023-03-01T17:54:02;4.50;99.90
10296;DHT22;5193;51.032;6.356;2023-03-01T17:56:27;4.40;99.90
10296;DHT22;5193;51.032;6.356;2023-03-01T17:58:54;4.40;99.90
10296;DHT22;5193;51.032;6.356;2023-03-01T18:01:20;4.40;99.90
10296;DHT22;5193;51.032;6.356;2023-03-01T18:03:46;4.40;99.90
10296;DHT22;5193;51.032;6.356;2023-03-01T18:06:17;4.30;99.90
10296;DHT22;5193;51.032;6.356;2023-03-01T18:08:44;4.30;99.90
10296;DHT22;5193;51.032;6.356;2023-03-01T18:11:11;4.30;99.90
10296;DHT22;5193;51.032;6.356;2023-03-01T18:13:37;4.30;99.90
10296;DHT22;5193;51.032;6.356;2023-03-01T18:16:09;4.30;99.90
10296;DHT22;5193;51.032;6.356;2023-03-01T18:18:35;4.30;99.90